createdAt,value
2022-08-22T00:01:14.305Z,19.42
2022-08-22T00:02:57.376Z,20.28
2022-08-22T00:03:55.059Z,19.46
2022-08-22T00:06:31.517Z,19.47
2022-08-22T00:09:21.872Z,19.50
2022-08-22T00:11:57.452Z,19.52
2022-08-22T00:14:38.535Z,19.50
2022-08-22T00:17:22.867Z,19.44
2022-08-22T00:19:59.591Z,19.41
2022-08-22T00:22:36.133Z,19.37
2022-08-22T00:25:25.762Z,19.40
2022-08-22T00:27:57.902Z,19.38
2022-08-22T00:30:30.639Z,19.37
2022-08-22T00:33:06.491Z,19.31
2022-08-22T00:35:44.866Z,19.27
2022-08-22T00:38:18.781Z,19.27
2022-08-22T00:40:57.379Z,19.28
2022-08-22T00:44:11.579Z,19.28
2022-08-22T00:47:02.262Z,19.31
2022-08-22T00:49:56.218Z,19.36
2022-08-22T00:52:56.522Z,19.33
2022-08-22T00:55:39.548Z,19.25
2022-08-22T00:58:53.651Z,19.23
2022-08-22T01:01:27.414Z,19.18
2022-08-22T01:04:28.708Z,19.19
2022-08-22T01:07:22.616Z,19.14
2022-08-22T01:10:04.408Z,19.18
2022-08-22T01:12:54.331Z,19.15
2022-08-22T01:15:27.979Z,19.14
2022-08-22T01:18:28.621Z,19.16
2022-08-22T01:21:49.029Z,19.13
2022-08-22T01:25:02.538Z,19.09
2022-08-22T01:27:57.926Z,19.09
2022-08-22T01:30:48.220Z,19.15
2022-08-22T01:34:02.539Z,19.23
2022-08-22T01:37:04.448Z,19.26
2022-08-22T01:39:50.010Z,19.21
2022-08-22T01:42:48.167Z,19.17
2022-08-22T01:45:51.773Z,19.16
2022-08-22T01:48:25.187Z,19.15
2022-08-22T01:50:58.625Z,19.22
2022-08-22T01:53:40.159Z,19.22
2022-08-22T01:56:14.315Z,19.21
2022-08-22T01:58:54.943Z,19.19
2022-08-22T02:01:36.548Z,19.19
2022-08-22T02:04:11.113Z,19.18
2022-08-22T02:06:48.566Z,19.16
2022-08-22T02:09:33.011Z,19.14
2022-08-22T02:12:22.268Z,19.15
2022-08-22T02:15:00.037Z,19.16
2022-08-22T02:17:32.514Z,19.12
2022-08-22T02:20:07.656Z,19.11
2022-08-22T02:22:44.545Z,19.18
2022-08-22T02:25:21.362Z,19.20
2022-08-22T02:27:55.570Z,19.17
2022-08-22T02:30:31.396Z,19.16
2022-08-22T02:33:06.957Z,19.16
2022-08-22T02:35:41.088Z,19.16
2022-08-22T02:38:24.489Z,19.11
2022-08-22T02:41:07.577Z,19.07
2022-08-22T02:43:44.838Z,19.01
2022-08-22T02:46:23.245Z,18.98
2022-08-22T02:49:00.830Z,18.98
2022-08-22T02:51:37.557Z,18.98
2022-08-22T02:54:17.603Z,18.95
2022-08-22T02:56:54.026Z,18.90
2022-08-22T02:59:33.640Z,18.88
2022-08-22T03:02:36.298Z,18.86
2022-08-22T03:05:19.100Z,18.83
2022-08-22T03:07:57.831Z,18.80
2022-08-22T03:10:30.306Z,18.76
2022-08-22T03:13:08.747Z,18.80
2022-08-22T03:15:48.619Z,18.77
2022-08-22T03:18:26.068Z,18.81
2022-08-22T03:21:01.459Z,18.82
2022-08-22T03:23:41.539Z,18.81
2022-08-22T03:26:16.402Z,18.73
2022-08-22T03:28:59.656Z,18.72
2022-08-22T03:31:31.094Z,18.73
2022-08-22T03:34:22.690Z,18.71
2022-08-22T03:37:04.107Z,18.68
2022-08-22T03:39:50.076Z,18.70
2022-08-22T03:42:47.306Z,18.69
2022-08-22T03:46:02.913Z,18.69
2022-08-22T03:48:53.146Z,18.64
2022-08-22T03:51:34.614Z,18.58
2022-08-22T03:54:23.863Z,18.53
2022-08-22T03:57:30.463Z,18.51
2022-08-22T04:00:20.914Z,18.48
2022-08-22T04:03:35.711Z,18.45
2022-08-22T04:06:28.984Z,18.40
2022-08-22T04:09:27.842Z,18.40
2022-08-22T04:12:24.934Z,18.37
2022-08-22T04:15:22.423Z,18.33
2022-08-22T04:18:03.386Z,18.29
2022-08-22T04:21:19.846Z,18.26
2022-08-22T04:24:17.028Z,18.26
2022-08-22T04:26:52.514Z,18.22
2022-08-22T04:29:26.702Z,18.21
2022-08-22T04:32:01.991Z,18.15
2022-08-22T04:34:40.218Z,18.13
2022-08-22T04:37:16.091Z,18.09
2022-08-22T04:39:50.014Z,18.07
2022-08-22T04:42:33.110Z,18.06
2022-08-22T04:45:10.636Z,18.04
2022-08-22T04:47:43.520Z,17.99
2022-08-22T04:50:22.387Z,17.97
2022-08-22T04:53:05.671Z,17.97
2022-08-22T04:55:46.598Z,17.94
2022-08-22T04:58:31.646Z,17.92
2022-08-22T05:01:17.065Z,17.91
2022-08-22T05:03:53.700Z,17.85
2022-08-22T05:06:26.774Z,17.83
2022-08-22T05:08:59.852Z,17.82
2022-08-22T05:11:32.742Z,17.79
2022-08-22T05:14:05.603Z,17.82
2022-08-22T05:16:39.262Z,17.87
2022-08-22T05:19:16.469Z,17.86
2022-08-22T05:21:50.536Z,17.85
2022-08-22T05:24:28.148Z,17.85
2022-08-22T05:27:01.562Z,17.87
2022-08-22T05:29:33.023Z,17.88
2022-08-22T05:32:07.001Z,17.88
2022-08-22T05:34:39.234Z,17.85
2022-08-22T05:37:13.402Z,17.87
2022-08-22T05:39:47.740Z,17.84
2022-08-22T05:42:33.147Z,17.88
2022-08-22T05:45:03.832Z,17.87
2022-08-22T05:47:37.984Z,17.86
2022-08-22T05:50:09.335Z,17.89
2022-08-22T05:52:48.750Z,17.90
2022-08-22T05:55:26.099Z,17.92
2022-08-22T05:58:17.890Z,18.03
2022-08-22T06:00:51.825Z,18.14
2022-08-22T06:03:28.912Z,18.21
2022-08-22T06:06:00.670Z,18.27
2022-08-22T06:08:35.828Z,18.35
2022-08-22T06:11:10.191Z,18.41
2022-08-22T06:13:47.236Z,18.48
2022-08-22T06:16:20.465Z,18.60
2022-08-22T06:18:52.189Z,18.66
2022-08-22T06:21:38.628Z,18.76
2022-08-22T06:24:14.450Z,18.84
2022-08-22T06:26:48.719Z,18.88
2022-08-22T06:29:35.110Z,18.93
2022-08-22T06:32:11.412Z,18.95
2022-08-22T06:34:42.970Z,18.98
2022-08-22T06:37:21.199Z,19.05
2022-08-22T06:39:54.536Z,19.08
2022-08-22T06:42:26.306Z,19.11
2022-08-22T06:45:01.537Z,19.15
2022-08-22T06:47:33.855Z,19.20
2022-08-22T06:50:13.527Z,19.26
2022-08-22T06:52:53.265Z,19.32
2022-08-22T06:55:24.098Z,19.35
2022-08-22T06:57:57.243Z,19.37
2022-08-22T07:00:28.316Z,19.45
2022-08-22T07:03:00.254Z,19.51
2022-08-22T07:05:35.319Z,19.54
2022-08-22T07:08:09.052Z,19.61
2022-08-22T07:10:40.893Z,19.65
2022-08-22T07:13:16.053Z,19.70
2022-08-22T07:15:53.701Z,19.76
2022-08-22T07:18:26.640Z,19.81
2022-08-22T07:20:58.878Z,19.86
2022-08-22T07:23:34.207Z,19.92
2022-08-22T07:26:18.424Z,19.94
2022-08-22T07:28:58.426Z,20.02
2022-08-22T07:31:38.114Z,20.10
2022-08-22T07:34:25.657Z,20.11
2022-08-22T07:36:59.773Z,20.10
2022-08-22T07:39:34.225Z,20.08
2022-08-22T07:42:12.091Z,20.06
2022-08-22T07:44:56.973Z,20.03
2022-08-22T07:47:36.543Z,20.06
2022-08-22T07:50:13.249Z,20.12
2022-08-22T07:52:45.244Z,20.17
2022-08-22T07:55:19.967Z,20.27
2022-08-22T07:57:55.206Z,20.35
2022-08-22T08:00:24.811Z,20.41
2022-08-22T08:02:58.890Z,20.46
2022-08-22T08:05:31.465Z,20.54
2022-08-22T08:08:05.839Z,20.64
2022-08-22T08:10:37.742Z,20.74
2022-08-22T08:13:11.783Z,20.84
2022-08-22T08:15:42.082Z,20.92
2022-08-22T08:18:19.189Z,21.02
2022-08-22T08:20:51.887Z,21.12
2022-08-22T08:23:23.467Z,21.21
2022-08-22T08:26:08.595Z,21.34
2022-08-22T08:28:41.391Z,21.44
2022-08-22T08:31:24.265Z,21.54
2022-08-22T08:34:02.194Z,21.78
2022-08-22T08:36:49.316Z,21.96
2022-08-22T08:39:24.665Z,22.10
2022-08-22T08:42:31.679Z,22.21
2022-08-22T08:45:24.765Z,22.39
2022-08-22T08:48:15.971Z,22.46
2022-08-22T08:51:04.487Z,22.60
2022-08-22T08:54:12.893Z,22.80
2022-08-22T08:56:54.621Z,23.02
2022-08-22T08:59:34.918Z,23.10
2022-08-22T09:02:34.934Z,23.27
2022-08-22T09:05:35.669Z,23.47
2022-08-22T09:08:27.582Z,23.68
2022-08-22T09:11:28.136Z,23.88
2022-08-22T09:17:28.632Z,24.24
2022-08-22T09:20:20.501Z,24.29
2022-08-22T09:23:30.895Z,24.28
2022-08-22T09:26:06.248Z,24.41
2022-08-22T09:28:39.915Z,24.79
2022-08-22T09:31:48.279Z,25.16
2022-08-22T09:37:20.527Z,25.92
2022-08-22T09:39:59.030Z,25.94
2022-08-22T09:40:15.454Z,24.07
2022-08-22T09:40:16.617Z,25.57
2022-08-22T09:42:40.830Z,25.99
2022-08-22T09:45:42.963Z,26.27
2022-08-22T09:48:28.218Z,26.18
2022-08-22T09:51:31.988Z,26.37
2022-08-22T09:54:18.827Z,26.85
2022-08-22T09:57:01.666Z,26.98
2022-08-22T10:00:13.127Z,27.17
2022-08-22T10:02:51.765Z,27.30
2022-08-22T10:05:40.962Z,27.30
2022-08-22T10:08:20.917Z,27.10
2022-08-22T10:11:19.630Z,27.02
2022-08-22T10:13:57.878Z,27.10
2022-08-22T10:16:54.275Z,27.33
2022-08-22T10:19:29.832Z,27.70
2022-08-22T10:22:20.627Z,27.94
2022-08-22T10:24:59.918Z,28.22
2022-08-22T10:27:44.515Z,28.61
2022-08-22T10:30:18.897Z,28.89
2022-08-22T10:32:53.055Z,29.10
2022-08-22T10:35:28.437Z,29.23
2022-08-22T10:38:10.529Z,29.49
2022-08-22T10:40:48.031Z,29.71
2022-08-22T10:43:29.151Z,29.91
2022-08-22T10:46:07.125Z,30.00
2022-08-22T10:48:47.992Z,29.89
2022-08-22T10:51:29.883Z,29.87
2022-08-22T10:54:12.428Z,29.73
2022-08-22T10:56:45.507Z,29.57
2022-08-22T10:59:30.487Z,29.98
2022-08-22T11:02:14.755Z,30.20
2022-08-22T11:05:37.178Z,30.39
2022-08-22T11:08:48.882Z,30.71
2022-08-22T11:11:40.042Z,30.93
2022-08-22T11:14:26.100Z,31.02
2022-08-22T11:17:23.620Z,30.98
2022-08-22T11:20:19.422Z,31.08
2022-08-22T11:23:06.400Z,31.37
2022-08-22T11:25:53.910Z,31.62
2022-08-22T11:28:35.278Z,31.49
2022-08-22T11:31:10.056Z,31.32
2022-08-22T11:33:46.991Z,31.25
2022-08-22T11:36:27.389Z,31.22
2022-08-22T11:39:10.019Z,31.16
2022-08-22T11:41:58.948Z,31.07
2022-08-22T11:44:37.547Z,31.35
2022-08-22T11:47:24.179Z,31.69
2022-08-22T11:50:03.768Z,32.04
2022-08-22T11:52:58.137Z,32.35
2022-08-22T11:55:34.843Z,32.57
2022-08-22T11:58:25.504Z,32.49
2022-08-22T12:01:03.862Z,32.26
2022-08-22T12:03:44.218Z,32.11
2022-08-22T12:06:39.329Z,32.27
2022-08-22T12:09:14.213Z,32.44
2022-08-22T12:11:58.996Z,32.53
2022-08-22T12:14:39.007Z,32.58
2022-08-22T12:17:55.526Z,32.35
2022-08-22T12:20:35.183Z,32.31
2022-08-22T12:23:43.216Z,32.30
2022-08-22T12:26:30.117Z,32.48
2022-08-22T12:29:17.754Z,32.78
2022-08-22T12:32:22.790Z,32.96
2022-08-22T12:35:13.712Z,33.29
2022-08-22T12:38:03.619Z,33.28
2022-08-22T12:40:54.817Z,32.95
2022-08-22T12:43:42.757Z,32.97
2022-08-22T12:46:18.552Z,32.60
2022-08-22T12:49:11.235Z,32.03
2022-08-22T12:51:52.256Z,32.49
2022-08-22T12:54:46.779Z,32.82
2022-08-22T12:57:26.632Z,32.58
2022-08-22T13:00:01.891Z,32.64
2022-08-22T13:02:35.170Z,32.70
2022-08-22T13:05:19.642Z,32.68
2022-08-22T13:07:54.875Z,32.69
2022-08-22T13:10:47.160Z,32.64
2022-08-22T13:13:31.529Z,32.89
2022-08-22T13:16:02.619Z,33.30
2022-08-22T13:18:38.093Z,33.66
2022-08-22T13:21:15.174Z,33.77
2022-08-22T13:23:46.943Z,33.82
2022-08-22T13:26:31.639Z,33.95
2022-08-22T13:29:24.658Z,33.82
2022-08-22T13:31:59.295Z,34.04
2022-08-22T13:34:39.857Z,33.45
2022-08-22T13:37:16.290Z,33.52
2022-08-22T13:39:49.322Z,33.71
2022-08-22T13:42:29.754Z,33.65
2022-08-22T13:45:04.876Z,34.05
2022-08-22T13:47:39.255Z,33.58
2022-08-22T13:50:15.190Z,33.59
2022-08-22T13:52:52.224Z,33.63
2022-08-22T13:55:29.701Z,33.79
2022-08-22T13:58:06.933Z,33.98
2022-08-22T14:01:05.996Z,34.05
2022-08-22T14:03:45.455Z,34.33
2022-08-22T14:06:37.658Z,34.53
2022-08-22T14:09:31.786Z,34.55
2022-08-22T14:12:11.986Z,34.63
2022-08-22T14:14:46.081Z,34.75
2022-08-22T14:17:18.589Z,34.85
2022-08-22T14:19:59.014Z,34.99
2022-08-22T14:22:35.300Z,35.08
2022-08-22T14:25:10.305Z,35.20
2022-08-22T14:27:46.112Z,35.12
2022-08-22T14:30:18.891Z,35.03
2022-08-22T14:32:52.081Z,35.01
2022-08-22T14:35:33.582Z,35.01
2022-08-22T14:38:27.450Z,34.90
2022-08-22T14:41:05.472Z,34.94
2022-08-22T14:43:51.418Z,34.99
2022-08-22T14:46:26.732Z,35.09
2022-08-22T14:49:28.889Z,35.25
2022-08-22T14:52:03.380Z,35.36
2022-08-22T14:54:32.871Z,35.46
2022-08-22T14:57:10.062Z,35.45
2022-08-22T14:59:47.059Z,35.19
2022-08-22T15:02:26.429Z,34.70
2022-08-22T15:04:56.489Z,33.90
2022-08-22T15:07:27.875Z,33.25
2022-08-22T15:10:03.170Z,33.17
2022-08-22T15:12:36.374Z,33.33
2022-08-22T15:15:11.333Z,33.54
2022-08-22T15:17:45.101Z,33.20
2022-08-22T15:20:28.196Z,32.84
2022-08-22T15:23:01.355Z,32.91
2022-08-22T15:25:34.461Z,32.52
2022-08-22T15:28:14.099Z,31.65
2022-08-22T15:30:46.152Z,31.19
2022-08-22T15:33:24.516Z,31.02
2022-08-22T15:35:55.569Z,31.06
2022-08-22T15:38:36.464Z,30.85
2022-08-22T15:41:31.459Z,31.07
2022-08-22T15:44:14.807Z,31.17
2022-08-22T15:47:05.984Z,30.99
2022-08-22T15:49:50.539Z,31.06
2022-08-22T15:52:28.451Z,31.50
2022-08-22T15:55:18.440Z,31.67
2022-08-22T15:57:59.992Z,31.95
2022-08-22T16:00:43.363Z,32.15
2022-08-22T16:03:24.397Z,32.18
2022-08-22T16:05:56.226Z,31.95
2022-08-22T16:08:33.159Z,31.77
2022-08-22T16:11:27.484Z,31.25
2022-08-22T16:14:21.681Z,30.95
2022-08-22T16:17:01.418Z,30.75
2022-08-22T16:19:31.933Z,30.69
2022-08-22T16:22:09.638Z,30.90
2022-08-22T16:25:11.166Z,30.54
2022-08-22T16:27:56.642Z,30.24
2022-08-22T16:30:35.071Z,29.67
2022-08-22T16:33:17.701Z,29.28
2022-08-22T16:36:22.952Z,28.79
2022-08-22T16:38:55.545Z,28.61
2022-08-22T16:41:32.237Z,28.34
2022-08-22T16:44:23.002Z,28.10
2022-08-22T16:46:54.423Z,27.76
2022-08-22T16:49:32.149Z,27.36
2022-08-22T16:52:41.149Z,27.29
2022-08-22T16:55:40.679Z,27.45
2022-08-22T16:58:50.184Z,27.63
2022-08-22T17:01:36.187Z,27.66
2022-08-22T17:04:16.399Z,27.63
2022-08-22T17:07:15.473Z,27.57
2022-08-22T17:10:04.848Z,27.65
2022-08-22T17:12:49.143Z,27.44
2022-08-22T17:15:32.723Z,27.32
2022-08-22T17:18:15.180Z,27.31
2022-08-22T17:20:50.285Z,27.13
2022-08-22T17:23:31.556Z,27.04
2022-08-22T17:26:07.171Z,26.91
2022-08-22T17:28:42.745Z,26.97
2022-08-22T17:31:18.081Z,26.75
2022-08-22T17:34:02.658Z,26.69
2022-08-22T17:36:53.650Z,26.66
2022-08-22T17:39:38.831Z,26.56
2022-08-22T17:42:21.903Z,26.43
2022-08-22T17:44:57.674Z,26.29
2022-08-22T17:47:30.975Z,26.15
2022-08-22T17:50:08.029Z,25.99
2022-08-22T17:52:43.347Z,26.04
2022-08-22T17:55:19.462Z,25.98
2022-08-22T17:57:52.541Z,25.78
2022-08-22T18:00:30.492Z,25.88
2022-08-22T18:03:06.770Z,25.70
2022-08-22T18:05:41.434Z,25.55
2022-08-22T18:08:37.568Z,25.37
2022-08-22T18:11:10.602Z,25.39
2022-08-22T18:13:49.545Z,25.28
2022-08-22T18:16:25.445Z,25.20
2022-08-22T18:19:05.543Z,25.17
2022-08-22T18:21:38.407Z,25.05
2022-08-22T18:24:21.210Z,25.03
2022-08-22T18:26:59.283Z,25.02
2022-08-22T18:29:34.785Z,25.01
2022-08-22T18:32:11.125Z,24.99
2022-08-22T18:34:48.670Z,25.00
2022-08-22T18:37:23.079Z,24.95
2022-08-22T18:39:56.756Z,24.75
2022-08-22T18:42:30.984Z,24.65
2022-08-22T18:44:59.963Z,24.60
2022-08-22T18:47:32.689Z,24.48
2022-08-22T18:50:04.093Z,24.44
2022-08-22T18:52:41.402Z,24.44
2022-08-22T18:55:28.224Z,24.36
2022-08-22T18:58:27.246Z,24.31
2022-08-22T19:01:09.611Z,24.23
2022-08-22T19:03:50.914Z,23.85
2022-08-22T19:06:38.750Z,23.77
2022-08-22T19:09:28.487Z,23.72
2022-08-22T19:12:04.347Z,23.55
2022-08-22T19:15:06.037Z,23.45
2022-08-22T19:17:58.799Z,23.25
2022-08-22T19:20:49.987Z,23.10
2022-08-22T19:23:47.410Z,23.09
2022-08-22T19:26:32.391Z,23.09
2022-08-22T19:29:08.769Z,23.19
2022-08-22T19:31:48.013Z,23.05
2022-08-22T19:34:22.083Z,23.06
2022-08-22T19:37:32.972Z,23.09
2022-08-22T19:40:09.557Z,23.06
2022-08-22T19:42:40.575Z,23.01
2022-08-22T19:45:23.472Z,22.96
2022-08-22T19:48:00.625Z,23.00
2022-08-22T19:50:34.238Z,22.93
2022-08-22T19:53:14.664Z,22.92
2022-08-22T19:56:00.210Z,23.04
2022-08-22T19:58:40.161Z,23.12
2022-08-22T20:01:32.371Z,23.13
2022-08-22T20:04:10.181Z,23.17
2022-08-22T20:06:44.487Z,23.16
2022-08-22T20:09:28.094Z,23.14
2022-08-22T20:12:06.986Z,23.16
2022-08-22T20:14:37.203Z,23.14
2022-08-22T20:17:11.143Z,22.99
2022-08-22T20:22:45.121Z,22.97
2022-08-22T20:25:43.034Z,22.94
2022-08-22T20:28:28.347Z,22.81
2022-08-22T20:31:00.807Z,22.79
2022-08-22T20:33:33.751Z,22.72
2022-08-22T20:36:06.929Z,22.70
2022-08-22T20:38:59.451Z,22.58
2022-08-22T20:41:33.730Z,22.62
2022-08-22T20:44:11.137Z,22.54
2022-08-22T20:46:53.642Z,22.54
2022-08-22T20:49:28.644Z,22.58
2022-08-22T20:52:00.578Z,22.66
2022-08-22T20:54:32.203Z,22.62
2022-08-22T20:57:02.639Z,22.64
2022-08-22T20:59:39.796Z,22.67
2022-08-22T21:02:14.519Z,22.66
2022-08-22T21:04:50.477Z,22.54
2022-08-22T21:07:24.314Z,22.47
2022-08-22T21:10:21.613Z,22.40
2022-08-22T21:13:09.528Z,22.34
2022-08-22T21:15:41.489Z,22.23
2022-08-22T21:18:10.888Z,22.16
2022-08-22T21:20:41.007Z,22.11
2022-08-22T21:23:15.341Z,22.15
2022-08-22T21:25:58.370Z,22.19
2022-08-22T21:28:30.421Z,22.20
2022-08-22T21:30:59.666Z,22.17
2022-08-22T21:33:29.300Z,22.19
2022-08-22T21:36:00.727Z,22.23
2022-08-22T21:38:30.835Z,22.25
2022-08-22T21:41:05.654Z,22.22
2022-08-22T21:43:37.712Z,22.15
2022-08-22T21:46:06.680Z,22.06
2022-08-22T21:48:44.053Z,21.94
2022-08-22T21:51:24.180Z,21.83
2022-08-22T21:54:20.500Z,21.86
2022-08-22T21:56:49.377Z,21.72
2022-08-22T21:59:24.951Z,21.75
2022-08-22T22:01:55.458Z,21.78
2022-08-22T22:04:23.917Z,21.78
2022-08-22T22:06:53.237Z,21.69
2022-08-22T22:09:23.249Z,21.69
2022-08-22T22:11:51.959Z,21.71
2022-08-22T22:14:20.286Z,21.67
2022-08-22T22:16:49.237Z,21.62
2022-08-22T22:19:17.516Z,21.58
2022-08-22T22:21:46.987Z,21.56
2022-08-22T22:24:15.326Z,21.55
2022-08-22T22:26:45.838Z,21.54
2022-08-22T22:29:14.244Z,21.52
2022-08-22T22:31:43.275Z,21.52
2022-08-22T22:34:12.016Z,21.38
2022-08-22T22:36:41.747Z,21.42
2022-08-22T22:39:11.450Z,21.39
2022-08-22T22:41:39.800Z,21.31
2022-08-22T22:44:09.972Z,21.33
2022-08-22T22:46:38.746Z,21.30
2022-08-22T22:49:07.479Z,21.26
2022-08-22T22:51:36.142Z,21.27
2022-08-22T22:54:05.012Z,21.25
2022-08-22T22:56:33.886Z,21.21
2022-08-22T22:59:13.182Z,21.20
2022-08-22T23:02:06.378Z,21.16
2022-08-22T23:04:37.134Z,21.05
2022-08-22T23:07:07.682Z,21.02
2022-08-22T23:09:38.590Z,21.00
2022-08-22T23:12:14.053Z,21.01
2022-08-22T23:14:42.338Z,21.04
2022-08-22T23:17:13.398Z,20.97
2022-08-22T23:19:42.422Z,20.89
2022-08-22T23:22:14.600Z,20.78
2022-08-22T23:24:43.862Z,20.76
2022-08-22T23:27:13.098Z,20.79
2022-08-22T23:29:42.112Z,20.72
2022-08-22T23:32:13.286Z,20.67
2022-08-22T23:34:46.441Z,20.68
2022-08-22T23:37:18.158Z,20.70
2022-08-22T23:39:48.201Z,20.71
2022-08-22T23:42:18.394Z,20.71
2022-08-22T23:44:47.468Z,20.70
2022-08-22T23:47:17.730Z,20.69
2022-08-22T23:49:46.690Z,20.74
2022-08-22T23:52:15.959Z,20.69
2022-08-22T23:54:44.817Z,20.64
2022-08-22T23:57:13.311Z,20.63
2022-08-22T23:59:48.028Z,20.58
